Time,TemperatureF,DewpointF,PressureIn,WindDirection,WindDirectionDegrees,WindSpeedMPH,WindSpeedGustMPH,Humidity,HourlyPrecipIn,Conditions,Clouds,dailyrainin,SoftwareType,DateUTC
2013-03-08 00:00:00,24.5,22.2,30.46,West,259,0.0,0.0,91,0.00,,,0.00,WUHU216DAVISVP2,2013-03-08 05:00:00,
2013-03-08 00:02:00,24.6,22.3,30.46,WSW,258,0.0,0.0,91,0.00,,,0.00,WUHU216DAVISVP2,2013-03-08 05:02:00,
2013-03-08 00:07:00,24.0,21.2,30.46,WSW,258,0.0,0.0,89,0.00,,,0.00,WUHU216DAVISVP2,2013-03-08 05:07:00,
2013-03-08 00:12:00,23.2,20.4,30.46,West,259,0.0,0.0,89,0.00,,,0.00,WUHU216DAVISVP2,2013-03-08 05:12:00,
2013-03-08 00:17:00,22.9,20.4,30.46,West,259,0.0,0.0,90,0.00,,,0.00,WUHU216DAVISVP2,2013-03-08 05:17:00,
2013-03-08 00:22:00,22.4,19.9,30.46,West,259,0.0,0.0,90,0.00,,,0.00,WUHU216DAVISVP2,2013-03-08 05:22:00,
2013-03-08 00:27:00,21.9,19.4,30.46,West,259,0.0,0.0,90,0.00,,,0.00,WUHU216DAVISVP2,2013-03-08 05:27:00,
2013-03-08 00:32:00,21.9,19.9,30.46,West,259,0.0,0.0,92,0.00,,,0.00,WUHU216DAVISVP2,2013-03-08 05:32:00,
2013-03-08 00:37:00,22.0,20.0,30.46,West,259,0.0,0.0,92,0.00,,,0.00,WUHU216DAVISVP2,2013-03-08 05:37:00,
2013-03-08 00:42:00,22.0,20.0,30.47,WSW,258,0.0,0.0,92,0.00,,,0.00,WUHU216DAVISVP2,2013-03-08 05:42:00,
2013-03-08 00:47:00,22.2,20.4,30.46,West,259,0.0,0.0,93,0.00,,,0.00,WUHU216DAVISVP2,2013-03-08 05:47:00,
2013-03-08 00:52:00,22.5,20.7,30.46,West,259,0.0,0.0,93,0.00,,,0.00,WUHU216DAVISVP2,2013-03-08 05:52:00,
2013-03-08 00:57:00,22.3,20.3,30.46,West,259,0.0,0.0,92,0.00,,,0.00,WUHU216DAVISVP2,2013-03-08 05:57:00,
2013-03-08 01:02:00,22.1,20.1,30.46,West,259,0.0,0.0,92,0.00,,,0.00,WUHU216DAVISVP2,2013-03-08 06:02:00,
2013-03-08 01:07:00,22.3,20.3,30.46,West,259,0.0,0.0,92,0.00,,,0.00,WUHU216DAVISVP2,2013-03-08 06:07:00,
2013-03-08 01:12:00,22.1,20.1,30.46,West,259,0.0,0.0,92,0.00,,,0.00,WUHU216DAVISVP2,2013-03-08 06:12:00,
2013-03-08 01:17:00,21.9,19.7,30.46,West,259,0.0,0.0,91,0.00,,,0.00,WUHU216DAVISVP2,2013-03-08 06:17:00,
2013-03-08 01:22:00,21.4,19.1,30.46,West,259,0.0,0.0,91,0.00,,,0.00,WUHU216DAVISVP2,2013-03-08 06:22:00,
2013-03-08 01:27:00,20.8,18.5,30.46,West,259,0.0,0.0,91,0.00,,,0.00,WUHU216DAVISVP2,2013-03-08 06:27:00,
2013-03-08 01:32:00,20.4,18.2,30.46,West,259,0.0,0.0,91,0.00,,,0.00,WUHU216DAVISVP2,2013-03-08 06:32:00,
2013-03-08 01:37:00,20.1,17.9,30.46,West,259,0.0,0.0,91,0.00,,,0.00,WUHU216DAVISVP2,2013-03-08 06:37:00,
2013-03-08 01:42:00,20.0,17.8,30.46,West,259,0.0,0.0,91,0.00,,,0.00,WUHU216DAVISVP2,2013-03-08 06:42:00,
2013-03-08 01:47:00,19.8,17.6,30.47,West,259,0.0,0.0,91,0.00,,,0.00,WUHU216DAVISVP2,2013-03-08 06:47:00,
2013-03-08 01:52:00,19.3,17.1,30.47,West,259,0.0,0.0,91,0.00,,,0.00,WUHU216DAVISVP2,2013-03-08 06:52:00,
2013-03-08 01:57:00,19.1,16.9,30.47,West,259,0.0,0.0,91,0.00,,,0.00,WUHU216DAVISVP2,2013-03-08 06:57:00,
2013-03-08 02:02:00,19.5,17.6,30.46,West,259,0.0,0.0,92,0.00,,,0.00,WUHU216DAVISVP2,2013-03-08 07:02:00,
2013-03-08 02:07:00,20.0,18.3,30.47,West,259,0.0,0.0,93,0.00,,,0.00,WUHU216DAVISVP2,2013-03-08 07:07:00,
2013-03-08 02:12:00,20.0,18.3,30.47,West,259,0.0,0.0,93,0.00,,,0.00,WUHU216DAVISVP2,2013-03-08 07:12:00,
2013-03-08 02:17:00,19.4,17.4,30.47,West,259,0.0,0.0,92,0.00,,,0.00,WUHU216DAVISVP2,2013-03-08 07:17:00,
2013-03-08 02:22:00,18.9,16.9,30.47,West,259,0.0,0.0,92,0.00,,,0.00,WUHU216DAVISVP2,2013-03-08 07:22:00,
2013-03-08 02:27:00,18.7,17.0,30.47,West,259,0.0,0.0,93,0.00,,,0.00,WUHU216DAVISVP2,2013-03-08 07:27:00,
2013-03-08 02:32:00,19.0,17.5,30.48,West,259,0.0,0.0,94,0.00,,,0.00,WUHU216DAVISVP2,2013-03-08 07:32:00,
2013-03-08 02:37:00,19.7,18.5,30.47,West,259,0.0,0.0,95,0.00,,,0.00,WUHU216DAVISVP2,2013-03-08 07:37:00,
2013-03-08 02:42:00,20.2,19.0,30.48,West,259,0.0,0.0,95,0.00,,,0.00,WUHU216DAVISVP2,2013-03-08 07:42:00,
2013-03-08 02:47:00,20.5,19.3,30.48,West,259,0.0,0.0,95,0.00,,,0.00,WUHU216DAVISVP2,2013-03-08 07:47:00,
2013-03-08 02:52:00,20.9,19.7,30.48,West,259,0.0,0.0,95,0.00,,,0.00,WUHU216DAVISVP2,2013-03-08 07:52:00,
2013-03-08 02:57:00,21.1,19.8,30.48,West,259,0.0,0.0,95,0.00,,,0.00,WUHU216DAVISVP2,2013-03-08 07:57:00,
2013-03-08 03:02:00,21.4,20.1,30.48,West,259,0.0,0.0,95,0.00,,,0.00,WUHU216DAVISVP2,2013-03-08 08:02:00,
2013-03-08 03:07:00,21.4,20.1,30.48,West,259,0.0,0.0,95,0.00,,,0.00,WUHU216DAVISVP2,2013-03-08 08:07:00,
2013-03-08 03:12:00,21.3,20.0,30.48,West,259,0.0,0.0,95,0.00,,,0.00,WUHU216DAVISVP2,2013-03-08 08:12:00,
2013-03-08 03:17:00,21.2,19.9,30.47,West,259,0.0,0.0,95,0.00,,,0.00,WUHU216DAVISVP2,2013-03-08 08:17:00,
2013-03-08 03:22:00,21.1,19.8,30.47,West,259,0.0,0.0,95,0.00,,,0.00,WUHU216DAVISVP2,2013-03-08 08:22:00,
2013-03-08 03:27:00,21.3,20.0,30.47,West,260,0.0,0.0,95,0.00,,,0.00,WUHU216DAVISVP2,2013-03-08 08:27:00,
2013-03-08 03:32:00,21.7,20.4,30.48,WNW,287,0.0,0.0,95,0.00,,,0.00,WUHU216DAVISVP2,2013-03-08 08:32:00,
2013-03-08 03:37:00,21.8,20.5,30.48,WNW,287,0.0,0.0,95,0.00,,,0.00,WUHU216DAVISVP2,2013-03-08 08:37:00,
2013-03-08 03:42:00,21.6,20.3,30.47,WNW,286,0.0,0.0,95,0.00,,,0.00,WUHU216DAVISVP2,2013-03-08 08:42:00,
2013-03-08 03:47:00,21.1,19.6,30.47,WNW,287,0.0,0.0,94,0.00,,,0.00,WUHU216DAVISVP2,2013-03-08 08:47:00,
2013-03-08 03:52:00,20.7,19.2,30.47,WNW,286,0.0,0.0,94,0.00,,,0.00,WUHU216DAVISVP2,2013-03-08 08:52:00,
2013-03-08 03:57:00,20.0,18.5,30.47,WNW,287,0.0,0.0,94,0.00,,,0.00,WUHU216DAVISVP2,2013-03-08 08:57:00,
2013-03-08 04:02:00,19.3,17.6,30.48,WNW,287,0.0,0.0,93,0.00,,,0.00,WUHU216DAVISVP2,2013-03-08 09:02:00,
2013-03-08 04:07:00,18.8,17.3,30.48,WNW,287,0.0,0.0,94,0.00,,,0.00,WUHU216DAVISVP2,2013-03-08 09:07:00,
2013-03-08 04:12:00,19.0,17.5,30.48,WNW,287,0.0,0.0,94,0.00,,,0.00,WUHU216DAVISVP2,2013-03-08 09:12:00,
2013-03-08 04:17:00,19.7,18.5,30.48,WNW,287,0.0,0.0,95,0.00,,,0.00,WUHU216DAVISVP2,2013-03-08 09:17:00,
2013-03-08 04:22:00,20.2,19.0,30.48,WNW,302,0.0,0.0,95,0.00,,,0.00,WUHU216DAVISVP2,2013-03-08 09:22:00,
2013-03-08 04:27:00,20.2,19.0,30.48,WNW,302,0.0,0.0,95,0.00,,,0.00,WUHU216DAVISVP2,2013-03-08 09:27:00,
2013-03-08 04:32:00,19.9,18.7,30.48,WNW,302,0.0,0.0,95,0.00,,,0.00,WUHU216DAVISVP2,2013-03-08 09:32:00,
2013-03-08 04:37:00,19.4,17.9,30.49,WNW,302,0.0,0.0,94,0.00,,,0.00,WUHU216DAVISVP2,2013-03-08 09:37:00,
2013-03-08 04:42:00,19.6,18.4,30.49,WNW,302,0.0,0.0,95,0.00,,,0.00,WUHU216DAVISVP2,2013-03-08 09:42:00,
2013-03-08 04:47:00,20.3,19.1,30.49,WNW,302,0.0,0.0,95,0.00,,,0.00,WUHU216DAVISVP2,2013-03-08 09:47:00,
2013-03-08 04:52:00,20.6,19.4,30.49,WNW,302,0.0,0.0,95,0.00,,,0.00,WUHU216DAVISVP2,2013-03-08 09:52:00,
2013-03-08 04:57:00,20.1,18.9,30.49,WNW,302,0.0,0.0,95,0.00,,,0.00,WUHU216DAVISVP2,2013-03-08 09:57:00,
2013-03-08 05:02:00,19.6,18.2,30.49,WNW,302,0.0,0.0,94,0.00,,,0.00,WUHU216DAVISVP2,2013-03-08 10:02:00,
2013-03-08 05:07:00,18.9,17.4,30.49,WNW,302,0.0,0.0,94,0.00,,,0.00,WUHU216DAVISVP2,2013-03-08 10:07:00,
2013-03-08 05:12:00,18.2,16.8,30.49,WNW,302,0.0,0.0,94,0.00,,,0.00,WUHU216DAVISVP2,2013-03-08 10:12:00,
2013-03-08 05:17:00,17.6,16.2,30.50,WNW,302,0.0,0.0,94,0.00,,,0.00,WUHU216DAVISVP2,2013-03-08 10:17:00,
2013-03-08 05:22:00,17.2,15.8,30.49,WNW,302,0.0,0.0,94,0.00,,,0.00,WUHU216DAVISVP2,2013-03-08 10:22:00,
2013-03-08 05:27:00,17.3,15.9,30.49,WNW,302,0.0,0.0,94,0.00,,,0.00,WUHU216DAVISVP2,2013-03-08 10:27:00,
2013-03-08 05:32:00,17.1,15.7,30.49,WNW,302,0.0,0.0,94,0.00,,,0.00,WUHU216DAVISVP2,2013-03-08 10:32:00,
2013-03-08 05:37:00,17.1,15.7,30.49,NNW,347,0.0,0.0,94,0.00,,,0.00,WUHU216DAVISVP2,2013-03-08 10:37:00,
2013-03-08 05:42:00,17.0,15.6,30.49,North,358,0.0,0.0,94,0.00,,,0.00,WUHU216DAVISVP2,2013-03-08 10:42:00,
2013-03-08 05:47:00,16.7,15.3,30.50,North,359,0.0,0.0,94,0.00,,,0.00,WUHU216DAVISVP2,2013-03-08 10:47:00,
2013-03-08 05:52:00,16.7,15.3,30.50,North,359,0.0,0.0,94,0.00,,,0.00,WUHU216DAVISVP2,2013-03-08 10:52:00,
2013-03-08 05:57:00,16.4,15.0,30.50,North,359,0.0,0.0,94,0.00,,,0.00,WUHU216DAVISVP2,2013-03-08 10:57:00,
2013-03-08 06:02:00,15.9,14.5,30.50,North,359,0.0,0.0,94,0.00,,,0.00,WUHU216DAVISVP2,2013-03-08 11:02:00,
2013-03-08 06:07:00,15.5,14.0,30.51,North,359,0.0,0.0,94,0.00,,,0.00,WUHU216DAVISVP2,2013-03-08 11:07:00,
2013-03-08 06:12:00,15.3,13.8,30.50,North,358,0.0,0.0,94,0.00,,,0.00,WUHU216DAVISVP2,2013-03-08 11:12:00,
2013-03-08 06:17:00,15.2,13.7,30.50,North,359,0.0,0.0,94,0.00,,,0.00,WUHU216DAVISVP2,2013-03-08 11:17:00,
2013-03-08 06:22:00,15.0,13.5,30.50,North,359,0.0,0.0,94,0.00,,,0.00,WUHU216DAVISVP2,2013-03-08 11:22:00,
2013-03-08 06:27:00,14.6,13.1,30.50,North,359,0.0,0.0,94,0.00,,,0.00,WUHU216DAVISVP2,2013-03-08 11:27:00,
2013-03-08 06:32:00,14.4,12.9,30.50,North,359,0.0,0.0,94,0.00,,,0.00,WUHU216DAVISVP2,2013-03-08 11:32:00,
2013-03-08 06:37:00,14.0,12.3,30.50,North,359,0.0,0.0,93,0.00,,,0.00,WUHU216DAVISVP2,2013-03-08 11:37:00,
2013-03-08 06:42:00,14.0,12.3,30.51,North,358,0.0,0.0,93,0.00,,,0.00,WUHU216DAVISVP2,2013-03-08 11:42:00,
2013-03-08 06:47:00,14.3,12.8,30.51,North,359,0.0,0.0,94,0.00,,,0.00,WUHU216DAVISVP2,2013-03-08 11:47:00,
2013-03-08 06:52:00,14.1,12.4,30.51,North,359,0.0,0.0,93,0.00,,,0.00,WUHU216DAVISVP2,2013-03-08 11:52:00,
2013-03-08 06:57:00,13.7,12.0,30.51,North,359,0.0,0.0,93,0.00,,,0.00,WUHU216DAVISVP2,2013-03-08 11:57:00,
2013-03-08 07:02:00,13.6,11.9,30.51,North,359,0.0,0.0,93,0.00,,,0.00,WUHU216DAVISVP2,2013-03-08 12:02:00,
2013-03-08 07:07:00,13.2,11.5,30.51,North,358,0.0,0.0,93,0.00,,,0.00,WUHU216DAVISVP2,2013-03-08 12:07:00,
2013-03-08 07:12:00,12.7,11.0,30.51,North,358,0.0,0.0,93,0.00,,,0.00,WUHU216DAVISVP2,2013-03-08 12:12:00,
2013-03-08 07:17:00,12.3,10.6,30.51,North,359,0.0,0.0,93,0.00,,,0.00,WUHU216DAVISVP2,2013-03-08 12:17:00,
2013-03-08 07:22:00,12.6,10.9,30.52,North,358,0.0,0.0,93,0.00,,,0.00,WUHU216DAVISVP2,2013-03-08 12:22:00,
2013-03-08 07:27:00,13.2,11.8,30.52,North,359,0.0,0.0,94,0.00,,,0.00,WUHU216DAVISVP2,2013-03-08 12:27:00,
2013-03-08 07:32:00,14.0,12.5,30.52,North,359,0.0,0.0,94,0.00,,,0.00,WUHU216DAVISVP2,2013-03-08 12:32:00,
2013-03-08 07:37:00,15.1,13.6,30.52,North,359,0.0,0.0,94,0.00,,,0.00,WUHU216DAVISVP2,2013-03-08 12:37:00,
2013-03-08 07:42:00,16.5,15.3,30.52,North,359,0.0,0.0,95,0.00,,,0.00,WUHU216DAVISVP2,2013-03-08 12:42:00,
2013-03-08 07:47:00,17.6,16.4,30.52,North,359,0.0,0.0,95,0.00,,,0.00,WUHU216DAVISVP2,2013-03-08 12:47:00,
2013-03-08 07:52:00,18.2,17.0,30.52,North,359,0.0,0.0,95,0.00,,,0.00,WUHU216DAVISVP2,2013-03-08 12:52:00,
2013-03-08 07:57:00,18.6,17.1,30.52,North,359,0.0,0.0,94,0.00,,,0.00,WUHU216DAVISVP2,2013-03-08 12:57:00,
2013-03-08 08:02:00,20.3,19.1,30.53,North,359,0.0,0.0,95,0.00,,,0.00,WUHU216DAVISVP2,2013-03-08 13:02:00,
2013-03-08 08:07:00,22.7,21.4,30.53,North,359,0.0,0.0,95,0.00,,,0.00,WUHU216DAVISVP2,2013-03-08 13:07:00,
2013-03-08 08:12:00,24.6,23.3,30.53,North,359,0.0,0.0,95,0.00,,,0.00,WUHU216DAVISVP2,2013-03-08 13:12:00,
2013-03-08 08:17:00,25.4,24.1,30.53,North,359,0.0,0.0,95,0.00,,,0.00,WUHU216DAVISVP2,2013-03-08 13:17:00,
2013-03-08 08:22:00,26.3,25.0,30.53,North,359,0.0,0.0,95,0.00,,,0.00,WUHU216DAVISVP2,2013-03-08 13:22:00,
2013-03-08 08:27:00,26.6,25.3,30.54,North,359,0.0,0.0,95,0.00,,,0.00,WUHU216DAVISVP2,2013-03-08 13:27:00,
2013-03-08 08:32:00,26.4,25.1,30.53,North,359,0.0,0.0,95,0.00,,,0.00,WUHU216DAVISVP2,2013-03-08 13:32:00,
2013-03-08 08:37:00,25.9,24.6,30.54,North,359,0.0,0.0,95,0.00,,,0.00,WUHU216DAVISVP2,2013-03-08 13:37:00,
2013-03-08 08:42:00,25.0,23.7,30.54,North,358,0.0,0.0,95,0.00,,,0.00,WUHU216DAVISVP2,2013-03-08 13:42:00,
2013-03-08 08:47:00,23.8,22.3,30.54,North,8,0.0,0.0,94,0.00,,,0.00,WUHU216DAVISVP2,2013-03-08 13:47:00,
2013-03-08 08:52:00,23.1,21.6,30.54,NNE,30,0.0,0.0,94,0.00,,,0.00,WUHU216DAVISVP2,2013-03-08 13:52:00,
2013-03-08 08:57:00,22.4,20.9,30.54,NNE,30,0.0,0.0,94,0.00,,,0.00,WUHU216DAVISVP2,2013-03-08 13:57:00,
2013-03-08 09:02:00,22.4,20.9,30.54,NNE,30,0.0,0.0,94,0.00,,,0.00,WUHU216DAVISVP2,2013-03-08 14:02:00,
2013-03-08 09:07:00,23.1,21.8,30.54,NNE,30,0.0,0.0,95,0.00,,,0.00,WUHU216DAVISVP2,2013-03-08 14:07:00,
2013-03-08 09:12:00,24.5,23.2,30.54,NNE,30,0.0,0.0,95,0.00,,,0.00,WUHU216DAVISVP2,2013-03-08 14:12:00,
2013-03-08 09:17:00,25.8,24.8,30.54,NNE,30,0.0,0.0,96,0.00,,,0.00,WUHU216DAVISVP2,2013-03-08 14:17:00,
2013-03-08 09:22:00,27.2,26.2,30.54,NNE,30,0.0,0.0,96,0.00,,,0.00,WUHU216DAVISVP2,2013-03-08 14:22:00,
2013-03-08 09:27:00,28.7,27.7,30.54,NNE,31,0.0,0.0,96,0.00,,,0.00,WUHU216DAVISVP2,2013-03-08 14:27:00,
2013-03-08 09:32:00,29.6,28.6,30.54,NNE,30,0.0,0.0,96,0.00,,,0.00,WUHU216DAVISVP2,2013-03-08 14:32:00,
2013-03-08 09:37:00,29.7,28.7,30.54,ENE,67,0.0,0.0,96,0.00,,,0.00,WUHU216DAVISVP2,2013-03-08 14:37:00,
2013-03-08 09:42:00,28.9,27.1,30.54,ENE,68,0.0,0.0,93,0.00,,,0.00,WUHU216DAVISVP2,2013-03-08 14:42:00,
2013-03-08 09:47:00,27.9,25.6,30.54,ENE,71,0.0,0.0,91,0.00,,,0.00,WUHU216DAVISVP2,2013-03-08 14:47:00,
2013-03-08 09:52:00,27.3,24.7,30.55,ENE,76,0.0,0.0,90,0.00,,,0.00,WUHU216DAVISVP2,2013-03-08 14:52:00,
2013-03-08 09:57:00,27.5,25.2,30.55,ENE,73,0.0,0.0,91,0.00,,,0.00,WUHU216DAVISVP2,2013-03-08 14:57:00,
2013-03-08 10:02:00,27.8,25.2,30.55,ENE,67,0.0,0.0,90,0.00,,,0.00,WUHU216DAVISVP2,2013-03-08 15:02:00,
2013-03-08 10:07:00,28.3,25.7,30.55,ENE,76,0.0,0.0,90,0.00,,,0.00,WUHU216DAVISVP2,2013-03-08 15:07:00,
2013-03-08 10:12:00,28.6,25.5,30.55,ENE,74,0.0,0.0,88,0.00,,,0.00,WUHU216DAVISVP2,2013-03-08 15:12:00,
2013-03-08 10:17:00,29.0,25.6,30.55,ENE,68,0.0,0.0,87,0.00,,,0.00,WUHU216DAVISVP2,2013-03-08 15:17:00,
2013-03-08 10:22:00,29.5,25.8,30.55,East,79,0.0,0.0,86,0.00,,,0.00,WUHU216DAVISVP2,2013-03-08 15:22:00,
2013-03-08 10:27:00,29.9,25.9,30.55,ENE,76,0.0,0.0,85,0.00,,,0.00,WUHU216DAVISVP2,2013-03-08 15:27:00,
2013-03-08 10:32:00,30.2,25.6,30.55,ENE,74,0.0,0.0,83,0.00,,,0.00,WUHU216DAVISVP2,2013-03-08 15:32:00,
2013-03-08 10:37:00,30.5,25.7,30.55,ENE,72,0.0,0.0,82,0.00,,,0.00,WUHU216DAVISVP2,2013-03-08 15:37:00,
2013-03-08 10:42:00,30.9,25.8,30.54,ENE,77,0.0,0.0,81,0.00,,,0.00,WUHU216DAVISVP2,2013-03-08 15:42:00,
2013-03-08 10:47:00,31.5,26.3,30.55,ENE,71,0.0,0.0,81,0.00,,,0.00,WUHU216DAVISVP2,2013-03-08 15:47:00,
2013-03-08 10:52:00,32.5,27.3,30.55,ENE,71,0.0,0.0,81,0.00,,,0.00,WUHU216DAVISVP2,2013-03-08 15:52:00,
2013-03-08 10:57:00,34.3,28.5,30.55,East,82,0.0,0.0,79,0.00,,,0.00,WUHU216DAVISVP2,2013-03-08 15:57:00,
2013-03-08 11:02:00,34.9,27.8,30.55,East,98,0.0,0.0,75,0.00,,,0.00,WUHU216DAVISVP2,2013-03-08 16:02:00,
2013-03-08 11:08:00,35.0,26.9,30.55,SE,126,6.0,6.0,72,0.00,,,0.00,WUHU216DAVISVP2,2013-03-08 16:08:00,
2013-03-08 11:13:00,35.0,25.6,30.55,SE,127,5.0,7.0,68,0.00,,,0.00,WUHU216DAVISVP2,2013-03-08 16:13:00,
2013-03-08 11:18:00,35.1,25.7,30.55,SE,129,6.0,7.0,68,0.00,,,0.00,WUHU216DAVISVP2,2013-03-08 16:18:00,
2013-03-08 11:23:00,35.3,25.1,30.55,ESE,111,3.0,6.0,66,0.00,,,0.00,WUHU216DAVISVP2,2013-03-08 16:23:00,
2013-03-08 11:28:00,35.8,26.0,30.55,SE,140,0.0,6.0,67,0.00,,,0.00,WUHU216DAVISVP2,2013-03-08 16:28:00,
2013-03-08 11:33:00,36.5,26.3,30.55,ESE,113,1.0,6.0,66,0.00,,,0.00,WUHU216DAVISVP2,2013-03-08 16:33:00,
2013-03-08 11:37:00,37.0,26.4,30.55,ESE,108,1.0,6.0,65,0.00,,,0.00,WUHU216DAVISVP2,2013-03-08 16:37:00,
2013-03-08 11:42:00,37.5,26.5,30.55,East,94,3.0,5.0,64,0.00,,,0.00,WUHU216DAVISVP2,2013-03-08 16:42:00,
2013-03-08 11:47:00,36.8,25.1,30.54,East,79,1.0,6.0,62,0.00,,,0.00,WUHU216DAVISVP2,2013-03-08 16:47:00,
2013-03-08 11:52:00,36.7,25.4,30.54,East,98,2.0,6.0,63,0.00,,,0.00,WUHU216DAVISVP2,2013-03-08 16:52:00,
2013-03-08 11:58:00,36.6,25.3,30.54,East,84,4.0,5.0,63,0.00,,,0.00,WUHU216DAVISVP2,2013-03-08 16:58:00,
2013-03-08 12:03:00,36.7,25.4,30.54,East,85,2.0,5.0,63,0.00,,,0.00,WUHU216DAVISVP2,2013-03-08 17:03:00,
2013-03-08 12:08:00,36.5,25.2,30.53,East,96,5.0,5.0,63,0.00,,,0.00,WUHU216DAVISVP2,2013-03-08 17:08:00,
2013-03-08 12:13:00,36.5,25.2,30.53,East,101,5.0,5.0,63,0.00,,,0.00,WUHU216DAVISVP2,2013-03-08 17:13:00,
2013-03-08 12:18:00,36.3,25.0,30.53,East,92,4.0,6.0,63,0.00,,,0.00,WUHU216DAVISVP2,2013-03-08 17:18:00,
2013-03-08 12:23:00,36.3,24.6,30.54,East,86,4.0,6.0,62,0.00,,,0.00,WUHU216DAVISVP2,2013-03-08 17:23:00,
2013-03-08 12:28:00,36.2,24.5,30.54,East,81,3.0,6.0,62,0.00,,,0.00,WUHU216DAVISVP2,2013-03-08 17:28:00,
2013-03-08 12:33:00,36.7,25.4,30.54,ESE,116,1.0,6.0,63,0.00,,,0.00,WUHU216DAVISVP2,2013-03-08 17:33:00,
2013-03-08 12:38:00,37.0,24.5,30.54,ESE,108,3.0,5.0,60,0.00,,,0.00,WUHU216DAVISVP2,2013-03-08 17:38:00,
2013-03-08 12:43:00,36.8,24.3,30.53,East,91,4.0,5.0,60,0.00,,,0.00,WUHU216DAVISVP2,2013-03-08 17:43:00,
2013-03-08 12:48:00,36.7,23.8,30.53,East,84,4.0,6.0,59,0.00,,,0.00,WUHU216DAVISVP2,2013-03-08 17:48:00,
2013-03-08 12:53:00,36.7,23.8,30.53,East,101,4.0,6.0,59,0.00,,,0.00,WUHU216DAVISVP2,2013-03-08 17:53:00,
2013-03-08 12:58:00,37.2,24.6,30.54,ESE,122,2.0,5.0,60,0.00,,,0.00,WUHU216DAVISVP2,2013-03-08 17:58:00,
2013-03-08 13:03:00,38.0,25.3,30.54,SE,132,3.0,5.0,60,0.00,,,0.00,WUHU216DAVISVP2,2013-03-08 18:03:00,
2013-03-08 13:08:00,38.5,24.6,30.53,East,91,1.0,5.0,57,0.00,,,0.00,WUHU216DAVISVP2,2013-03-08 18:08:00,
2013-03-08 13:13:00,38.2,24.3,30.53,East,79,1.0,4.0,57,0.00,,,0.00,WUHU216DAVISVP2,2013-03-08 18:13:00,
2013-03-08 13:18:00,38.1,25.0,30.53,ESE,103,1.0,4.0,59,0.00,,,0.00,WUHU216DAVISVP2,2013-03-08 18:18:00,
2013-03-08 13:23:00,38.6,25.6,30.53,East,79,2.0,3.0,59,0.00,,,0.00,WUHU216DAVISVP2,2013-03-08 18:23:00,
2013-03-08 13:27:00,38.3,26.1,30.53,ENE,78,3.0,3.0,61,0.00,,,0.00,WUHU216DAVISVP2,2013-03-08 18:27:00,
2013-03-08 13:32:00,38.0,25.7,30.52,ENE,63,1.0,3.0,61,0.00,,,0.00,WUHU216DAVISVP2,2013-03-08 18:32:00,
2013-03-08 13:38:00,37.8,24.7,30.52,East,89,2.0,4.0,59,0.00,,,0.00,WUHU216DAVISVP2,2013-03-08 18:38:00,
2013-03-08 13:42:00,38.2,25.9,30.52,ESE,102,1.0,4.0,61,0.00,,,0.00,WUHU216DAVISVP2,2013-03-08 18:42:00,
2013-03-08 13:47:00,39.1,26.4,30.52,ESE,114,0.0,3.0,60,0.00,,,0.00,WUHU216DAVISVP2,2013-03-08 18:47:00,
2013-03-08 13:53:00,40.4,26.4,30.52,ESE,119,2.0,3.0,57,0.00,,,0.00,WUHU216DAVISVP2,2013-03-08 18:53:00,
2013-03-08 13:58:00,40.5,25.6,30.51,SE,129,0.0,3.0,55,0.00,,,0.00,WUHU216DAVISVP2,2013-03-08 18:58:00,
2013-03-08 14:03:00,40.9,26.0,30.51,East,91,1.0,5.0,55,0.00,,,0.00,WUHU216DAVISVP2,2013-03-08 19:03:00,
2013-03-08 14:07:00,40.8,25.9,30.51,SSE,158,1.0,5.0,55,0.00,,,0.00,WUHU216DAVISVP2,2013-03-08 19:07:00,
2013-03-08 14:12:00,40.4,25.5,30.51,East,99,3.0,5.0,55,0.00,,,0.00,WUHU216DAVISVP2,2013-03-08 19:12:00,
2013-03-08 14:17:00,39.5,25.6,30.50,ENE,68,2.0,5.0,57,0.00,,,0.00,WUHU216DAVISVP2,2013-03-08 19:17:00,
2013-03-08 14:22:00,38.7,25.2,30.50,ENE,71,2.0,5.0,58,0.00,,,0.00,WUHU216DAVISVP2,2013-03-08 19:22:00,
2013-03-08 14:27:00,38.4,25.3,30.50,East,84,1.0,5.0,59,0.00,,,0.00,WUHU216DAVISVP2,2013-03-08 19:27:00,
2013-03-08 14:32:00,38.3,24.8,30.50,East,92,4.0,6.0,58,0.00,,,0.00,WUHU216DAVISVP2,2013-03-08 19:32:00,
2013-03-08 14:37:00,38.1,25.0,30.50,East,84,4.0,6.0,59,0.00,,,0.00,WUHU216DAVISVP2,2013-03-08 19:37:00,
2013-03-08 14:42:00,38.0,25.7,30.50,ENE,71,3.0,6.0,61,0.00,,,0.00,WUHU216DAVISVP2,2013-03-08 19:42:00,
2013-03-08 14:47:00,37.9,25.7,30.49,ENE,77,3.0,5.0,61,0.00,,,0.00,WUHU216DAVISVP2,2013-03-08 19:47:00,
2013-03-08 14:52:00,37.8,25.2,30.49,East,85,4.0,8.0,60,0.00,,,0.00,WUHU216DAVISVP2,2013-03-08 19:52:00,
2013-03-08 14:57:00,37.9,25.3,30.49,ESE,106,2.0,8.0,60,0.00,,,0.00,WUHU216DAVISVP2,2013-03-08 19:57:00,
2013-03-08 15:02:00,38.1,25.5,30.49,ESE,103,2.0,7.0,60,0.00,,,0.00,WUHU216DAVISVP2,2013-03-08 20:02:00,
2013-03-08 15:07:00,38.3,25.7,30.49,East,81,2.0,7.0,60,0.00,,,0.00,WUHU216DAVISVP2,2013-03-08 20:07:00,
2013-03-08 15:12:00,38.0,25.3,30.49,East,97,6.0,7.0,60,0.00,,,0.00,WUHU216DAVISVP2,2013-03-08 20:12:00,
2013-03-08 15:17:00,38.0,25.7,30.49,East,94,5.0,7.0,61,0.00,,,0.00,WUHU216DAVISVP2,2013-03-08 20:17:00,
2013-03-08 15:22:00,37.9,25.3,30.49,East,94,7.0,7.0,60,0.00,,,0.00,WUHU216DAVISVP2,2013-03-08 20:22:00,
2013-03-08 15:27:00,37.9,25.7,30.49,East,82,4.0,7.0,61,0.00,,,0.00,WUHU216DAVISVP2,2013-03-08 20:27:00,
2013-03-08 15:33:00,38.0,25.8,30.49,East,94,4.0,7.0,61,0.00,,,0.00,WUHU216DAVISVP2,2013-03-08 20:33:00,
2013-03-08 15:38:00,37.9,26.1,30.49,East,101,6.0,6.0,62,0.00,,,0.00,WUHU216DAVISVP2,2013-03-08 20:38:00,
2013-03-08 15:42:00,37.9,25.3,30.49,East,91,3.0,6.0,60,0.00,,,0.00,WUHU216DAVISVP2,2013-03-08 20:42:00,
2013-03-08 15:48:00,37.9,25.7,30.48,East,93,3.0,6.0,61,0.00,,,0.00,WUHU216DAVISVP2,2013-03-08 20:48:00,
2013-03-08 15:53:00,38.0,25.8,30.48,East,91,4.0,6.0,61,0.00,,,0.00,WUHU216DAVISVP2,2013-03-08 20:53:00,
2013-03-08 15:58:00,37.9,25.3,30.49,East,101,2.0,7.0,60,0.00,,,0.00,WUHU216DAVISVP2,2013-03-08 20:58:00,
2013-03-08 16:03:00,38.2,26.0,30.49,ENE,75,2.0,7.0,61,0.00,,,0.00,WUHU216DAVISVP2,2013-03-08 21:03:00,
2013-03-08 16:08:00,38.0,25.4,30.48,East,85,4.0,7.0,60,0.00,,,0.00,WUHU216DAVISVP2,2013-03-08 21:08:00,
2013-03-08 16:13:00,38.0,25.4,30.48,East,97,2.0,7.0,60,0.00,,,0.00,WUHU216DAVISVP2,2013-03-08 21:13:00,
2013-03-08 16:18:00,37.9,25.3,30.48,East,95,5.0,6.0,60,0.00,,,0.00,WUHU216DAVISVP2,2013-03-08 21:18:00,
2013-03-08 16:23:00,37.9,25.3,30.47,East,91,5.0,6.0,60,0.00,,,0.00,WUHU216DAVISVP2,2013-03-08 21:23:00,
2013-03-08 16:28:00,37.9,25.3,30.47,ESE,108,4.0,6.0,60,0.00,,,0.00,WUHU216DAVISVP2,2013-03-08 21:28:00,
2013-03-08 16:33:00,37.9,25.3,30.47,ESE,108,3.0,7.0,60,0.00,,,0.00,WUHU216DAVISVP2,2013-03-08 21:33:00,
2013-03-08 16:38:00,38.0,25.8,30.47,East,99,1.0,7.0,61,0.00,,,0.00,WUHU216DAVISVP2,2013-03-08 21:38:00,
2013-03-08 16:43:00,38.1,25.4,30.47,East,95,4.0,7.0,60,0.00,,,0.00,WUHU216DAVISVP2,2013-03-08 21:43:00,
2013-03-08 16:48:00,38.0,25.3,30.47,ESE,103,6.0,7.0,60,0.00,,,0.00,WUHU216DAVISVP2,2013-03-08 21:48:00,
2013-03-08 16:53:00,37.9,25.3,30.47,East,99,3.0,8.0,60,0.00,,,0.00,WUHU216DAVISVP2,2013-03-08 21:53:00,
2013-03-08 16:58:00,37.9,25.3,30.47,ESE,108,4.0,8.0,60,0.00,,,0.00,WUHU216DAVISVP2,2013-03-08 21:58:00,
2013-03-08 17:03:00,38.0,25.7,30.47,East,99,4.0,7.0,61,0.00,,,0.00,WUHU216DAVISVP2,2013-03-08 22:03:00,
2013-03-08 17:08:00,37.7,25.1,30.47,East,91,4.0,7.0,60,0.00,,,0.00,WUHU216DAVISVP2,2013-03-08 22:08:00,
2013-03-08 17:13:00,37.6,25.4,30.47,East,88,5.0,7.0,61,0.00,,,0.00,WUHU216DAVISVP2,2013-03-08 22:13:00,
2013-03-08 17:18:00,37.4,25.6,30.47,East,91,5.0,7.0,62,0.00,,,0.00,WUHU216DAVISVP2,2013-03-08 22:18:00,
2013-03-08 17:23:00,37.3,25.5,30.47,East,101,3.0,7.0,62,0.00,,,0.00,WUHU216DAVISVP2,2013-03-08 22:23:00,
2013-03-08 17:28:00,37.3,25.1,30.47,East,92,2.0,6.0,61,0.00,,,0.00,WUHU216DAVISVP2,2013-03-08 22:28:00,
2013-03-08 17:33:00,37.2,25.4,30.47,East,98,4.0,6.0,62,0.00,,,0.00,WUHU216DAVISVP2,2013-03-08 22:33:00,
2013-03-08 17:38:00,37.1,25.7,30.46,East,94,2.0,6.0,63,0.00,,,0.00,WUHU216DAVISVP2,2013-03-08 22:38:00,
2013-03-08 17:43:00,36.9,25.9,30.46,East,83,2.0,5.0,64,0.00,,,0.00,WUHU216DAVISVP2,2013-03-08 22:43:00,
2013-03-08 17:48:00,36.3,25.7,30.46,ENE,68,2.0,5.0,65,0.00,,,0.00,WUHU216DAVISVP2,2013-03-08 22:48:00,
2013-03-08 17:53:00,35.9,25.7,30.46,East,95,1.0,4.0,66,0.00,,,0.00,WUHU216DAVISVP2,2013-03-08 22:53:00,
2013-03-08 17:58:00,35.6,25.8,30.46,East,95,1.0,4.0,67,0.00,,,0.00,WUHU216DAVISVP2,2013-03-08 22:58:00,
2013-03-08 18:03:00,35.7,25.5,30.46,East,99,3.0,4.0,66,0.00,,,0.00,WUHU216DAVISVP2,2013-03-08 23:03:00,
2013-03-08 18:08:00,35.8,25.6,30.46,East,86,3.0,5.0,66,0.00,,,0.00,WUHU216DAVISVP2,2013-03-08 23:08:00,
2013-03-08 18:13:00,35.9,25.3,30.46,East,89,1.0,5.0,65,0.00,,,0.00,WUHU216DAVISVP2,2013-03-08 23:13:00,
2013-03-08 18:18:00,35.9,25.3,30.46,East,99,1.0,5.0,65,0.00,,,0.00,WUHU216DAVISVP2,2013-03-08 23:18:00,
2013-03-08 18:23:00,35.8,25.3,30.46,East,99,2.0,5.0,65,0.00,,,0.00,WUHU216DAVISVP2,2013-03-08 23:23:00,
2013-03-08 18:28:00,35.7,25.2,30.46,East,96,3.0,5.0,65,0.00,,,0.00,WUHU216DAVISVP2,2013-03-08 23:28:00,
2013-03-08 18:33:00,35.5,25.0,30.46,ESE,105,3.0,4.0,65,0.00,,,0.00,WUHU216DAVISVP2,2013-03-08 23:33:00,
2013-03-08 18:38:00,35.2,25.0,30.46,ESE,102,3.0,4.0,66,0.00,,,0.00,WUHU216DAVISVP2,2013-03-08 23:38:00,
2013-03-08 18:43:00,34.9,24.8,30.47,ESE,108,2.0,4.0,66,0.00,,,0.00,WUHU216DAVISVP2,2013-03-08 23:43:00,
2013-03-08 18:48:00,34.7,24.6,30.47,ESE,103,3.0,3.0,66,0.00,,,0.00,WUHU216DAVISVP2,2013-03-08 23:48:00,
2013-03-08 18:53:00,34.5,24.4,30.46,East,96,3.0,3.0,66,0.00,,,0.00,WUHU216DAVISVP2,2013-03-08 23:53:00,
2013-03-08 18:58:00,34.3,24.5,30.46,East,95,4.0,4.0,67,0.00,,,0.00,WUHU216DAVISVP2,2013-03-08 23:58:00,
2013-03-08 19:03:00,34.1,24.4,30.47,ESE,107,1.0,4.0,67,0.00,,,0.00,WUHU216DAVISVP2,2013-03-09 00:03:00,
2013-03-08 19:08:00,34.0,24.2,30.47,ESE,109,3.0,4.0,67,0.00,,,0.00,WUHU216DAVISVP2,2013-03-09 00:08:00,
2013-03-08 19:13:00,33.9,24.1,30.47,East,99,2.0,4.0,67,0.00,,,0.00,WUHU216DAVISVP2,2013-03-09 00:13:00,
2013-03-08 19:18:00,33.8,24.0,30.46,East,94,3.0,3.0,67,0.00,,,0.00,WUHU216DAVISVP2,2013-03-09 00:18:00,
2013-03-08 19:23:00,33.7,24.0,30.47,East,99,3.0,4.0,67,0.00,,,0.00,WUHU216DAVISVP2,2013-03-09 00:23:00,
2013-03-08 19:28:00,33.6,23.9,30.47,East,96,3.0,5.0,67,0.00,,,0.00,WUHU216DAVISVP2,2013-03-09 00:28:00,
2013-03-08 19:33:00,33.4,24.0,30.47,ESE,104,2.0,5.0,68,0.00,,,0.00,WUHU216DAVISVP2,2013-03-09 00:33:00,
2013-03-08 19:38:00,33.2,23.8,30.47,East,101,0.0,5.0,68,0.00,,,0.00,WUHU216DAVISVP2,2013-03-09 00:38:00,
2013-03-08 19:43:00,33.1,23.8,30.47,East,86,1.0,5.0,68,0.00,,,0.00,WUHU216DAVISVP2,2013-03-09 00:43:00,
2013-03-08 19:48:00,32.9,23.6,30.47,East,92,1.0,3.0,68,0.00,,,0.00,WUHU216DAVISVP2,2013-03-09 00:48:00,
2013-03-08 19:53:00,32.6,23.3,30.47,East,86,0.0,2.0,68,0.00,,,0.00,WUHU216DAVISVP2,2013-03-09 00:53:00,
2013-03-08 19:58:00,32.2,23.2,30.47,East,87,1.0,2.0,69,0.00,,,0.00,WUHU216DAVISVP2,2013-03-09 00:58:00,
2013-03-08 20:03:00,31.9,22.9,30.47,East,85,0.0,2.0,69,0.00,,,0.00,WUHU216DAVISVP2,2013-03-09 01:03:00,
2013-03-08 20:08:00,31.6,22.9,30.46,ENE,77,0.0,2.0,70,0.00,,,0.00,WUHU216DAVISVP2,2013-03-09 01:08:00,
2013-03-08 20:13:00,31.3,22.6,30.46,East,84,0.0,2.0,70,0.00,,,0.00,WUHU216DAVISVP2,2013-03-09 01:13:00,
2013-03-08 20:18:00,31.1,22.8,30.46,East,88,1.0,3.0,71,0.00,,,0.00,WUHU216DAVISVP2,2013-03-09 01:18:00,
2013-03-08 20:23:00,31.4,22.8,30.46,East,92,0.0,3.0,70,0.00,,,0.00,WUHU216DAVISVP2,2013-03-09 01:23:00,
2013-03-08 20:28:00,31.2,22.5,30.46,ESE,103,2.0,3.0,70,0.00,,,0.00,WUHU216DAVISVP2,2013-03-09 01:28:00,
2013-03-08 20:33:00,31.5,22.8,30.46,ESE,103,3.0,5.0,70,0.00,,,0.00,WUHU216DAVISVP2,2013-03-09 01:33:00,
2013-03-08 20:38:00,31.7,22.8,30.47,ESE,107,2.0,5.0,69,0.00,,,0.00,WUHU216DAVISVP2,2013-03-09 01:38:00,
2013-03-08 20:43:00,31.8,22.9,30.47,ESE,109,1.0,5.0,69,0.00,,,0.00,WUHU216DAVISVP2,2013-03-09 01:43:00,
2013-03-08 20:48:00,31.7,22.8,30.48,ESE,117,0.0,4.0,69,0.00,,,0.00,WUHU216DAVISVP2,2013-03-09 01:48:00,
2013-03-08 20:53:00,31.4,22.4,30.48,East,95,0.0,4.0,69,0.00,,,0.00,WUHU216DAVISVP2,2013-03-09 01:53:00,
2013-03-08 20:58:00,31.4,22.4,30.47,ESE,107,2.0,2.0,69,0.00,,,0.00,WUHU216DAVISVP2,2013-03-09 01:58:00,
2013-03-08 21:03:00,31.3,22.7,30.47,ESE,121,1.0,3.0,70,0.00,,,0.00,WUHU216DAVISVP2,2013-03-09 02:03:00,
2013-03-08 21:08:00,31.3,22.7,30.48,ESE,122,1.0,3.0,70,0.00,,,0.00,WUHU216DAVISVP2,2013-03-09 02:08:00,
2013-03-08 21:13:00,31.3,22.6,30.47,ESE,111,0.0,3.0,70,0.00,,,0.00,WUHU216DAVISVP2,2013-03-09 02:13:00,
2013-03-08 21:18:00,31.2,22.5,30.47,ESE,103,0.0,3.0,70,0.00,,,0.00,WUHU216DAVISVP2,2013-03-09 02:18:00,
2013-03-08 21:23:00,31.1,22.5,30.47,ESE,105,1.0,4.0,70,0.00,,,0.00,WUHU216DAVISVP2,2013-03-09 02:23:00,
2013-03-08 21:28:00,31.0,22.4,30.47,ESE,106,0.0,4.0,70,0.00,,,0.00,WUHU216DAVISVP2,2013-03-09 02:28:00,
2013-03-08 21:33:00,30.8,22.5,30.47,ESE,106,0.0,4.0,71,0.00,,,0.00,WUHU216DAVISVP2,2013-03-09 02:33:00,
2013-03-08 21:38:00,30.7,22.4,30.47,ESE,105,0.0,4.0,71,0.00,,,0.00,WUHU216DAVISVP2,2013-03-09 02:38:00,
2013-03-08 21:43:00,30.5,22.2,30.46,East,94,0.0,2.0,71,0.00,,,0.00,WUHU216DAVISVP2,2013-03-09 02:43:00,
2013-03-08 21:48:00,30.2,22.3,30.46,East,101,0.0,1.0,72,0.00,,,0.00,WUHU216DAVISVP2,2013-03-09 02:48:00,
2013-03-08 21:53:00,30.2,22.3,30.46,East,92,0.0,1.0,72,0.00,,,0.00,WUHU216DAVISVP2,2013-03-09 02:53:00,
2013-03-08 21:58:00,30.1,22.5,30.46,East,91,0.0,1.0,73,0.00,,,0.00,WUHU216DAVISVP2,2013-03-09 02:58:00,
2013-03-08 22:03:00,30.0,22.4,30.45,East,91,0.0,1.0,73,0.00,,,0.00,WUHU216DAVISVP2,2013-03-09 03:03:00,
2013-03-08 22:08:00,29.9,22.3,30.45,East,101,0.0,0.0,73,0.00,,,0.00,WUHU216DAVISVP2,2013-03-09 03:08:00,
2013-03-08 22:13:00,29.8,22.2,30.45,East,100,4.0,4.0,73,0.00,,,0.00,WUHU216DAVISVP2,2013-03-09 03:13:00,
2013-03-08 22:18:00,29.9,22.3,30.45,ESE,106,1.0,5.0,73,0.00,,,0.00,WUHU216DAVISVP2,2013-03-09 03:18:00,
2013-03-08 22:23:00,29.9,22.3,30.45,ESE,117,0.0,5.0,73,0.00,,,0.00,WUHU216DAVISVP2,2013-03-09 03:23:00,
2013-03-08 22:28:00,29.9,22.7,30.45,ESE,117,2.0,4.0,74,0.00,,,0.00,WUHU216DAVISVP2,2013-03-09 03:28:00,
2013-03-08 22:33:00,29.8,22.6,30.45,East,99,0.0,4.0,74,0.00,,,0.00,WUHU216DAVISVP2,2013-03-09 03:33:00,
2013-03-08 22:38:00,29.7,22.5,30.45,ESE,103,2.0,2.0,74,0.00,,,0.00,WUHU216DAVISVP2,2013-03-09 03:38:00,
2013-03-08 22:43:00,29.7,22.5,30.45,ESE,114,2.0,5.0,74,0.00,,,0.00,WUHU216DAVISVP2,2013-03-09 03:43:00,
2013-03-08 22:48:00,29.7,22.5,30.46,ESE,123,0.0,5.0,74,0.00,,,0.00,WUHU216DAVISVP2,2013-03-09 03:48:00,
2013-03-08 22:53:00,29.8,22.9,30.46,SE,131,1.0,5.0,75,0.00,,,0.00,WUHU216DAVISVP2,2013-03-09 03:53:00,
2013-03-08 22:58:00,29.7,22.5,30.46,SSE,153,0.0,4.0,74,0.00,,,0.00,WUHU216DAVISVP2,2013-03-09 03:58:00,
2013-03-08 23:03:00,29.6,22.4,30.46,SE,143,0.0,3.0,74,0.00,,,0.00,WUHU216DAVISVP2,2013-03-09 04:03:00,
2013-03-08 23:08:00,29.3,22.4,30.46,SE,131,0.0,3.0,75,0.00,,,0.00,WUHU216DAVISVP2,2013-03-09 04:08:00,
2013-03-08 23:13:00,29.0,22.1,30.45,ESE,103,0.0,3.0,75,0.00,,,0.00,WUHU216DAVISVP2,2013-03-09 04:13:00,
2013-03-08 23:18:00,28.8,21.9,30.45,East,96,0.0,1.0,75,0.00,,,0.00,WUHU216DAVISVP2,2013-03-09 04:18:00,
2013-03-08 23:23:00,28.6,22.0,30.46,ESE,110,0.0,1.0,76,0.00,,,0.00,WUHU216DAVISVP2,2013-03-09 04:23:00,
2013-03-08 23:28:00,28.7,22.4,30.46,SE,125,0.0,1.0,77,0.00,,,0.00,WUHU216DAVISVP2,2013-03-09 04:28:00,
2013-03-08 23:33:00,28.7,22.4,30.46,ESE,110,0.0,1.0,77,0.00,,,0.00,WUHU216DAVISVP2,2013-03-09 04:33:00,
2013-03-08 23:38:00,29.1,22.8,30.45,East,89,0.0,3.0,77,0.00,,,0.00,WUHU216DAVISVP2,2013-03-09 04:38:00,
2013-03-08 23:43:00,29.4,23.1,30.45,East,85,1.0,3.0,77,0.00,,,0.00,WUHU216DAVISVP2,2013-03-09 04:43:00,
2013-03-08 23:48:00,29.5,23.2,30.45,East,84,2.0,3.0,77,0.00,,,0.00,WUHU216DAVISVP2,2013-03-09 04:48:00,
2013-03-08 23:53:00,29.4,22.8,30.45,ENE,78,2.0,3.0,76,0.00,,,0.00,WUHU216DAVISVP2,2013-03-09 04:53:00,
2013-03-08 23:58:00,28.9,22.3,30.45,East,79,1.0,3.0,76,0.00,,,0.00,WUHU216DAVISVP2,2013-03-09 04:58:00,